Time;durP1;ratioP1;P1;durP2;ratioP2;P2;SDS_P1;SDS_P2;PMS_P1;PMS_P2;Temp;Humidity;BMP_temperature;BMP_pressure;BME280_temperature;BME280_humidity;BME280_pressure;Samples;Min_cycle;Max_cycle;Signal;HPM_P1;HPM_P2
2021/04/22 00:00:01;;;;;;;20.98;3.88;;;10.10;49.10;;;;;;5061368;28;20147;-66
2021/04/22 00:02:28;;;;;;;20.42;3.78;;;10.20;49.20;;;;;;5064782;28;20604;-65
2021/04/22 00:04:54;;;;;;;22.00;3.78;;;10.20;49.20;;;;;;5063374;28;23572;-65
2021/04/22 00:07:20;;;;;;;19.33;3.78;;;10.30;49.20;;;;;;5067588;28;20501;-66
2021/04/22 00:09:47;;;;;;;14.32;2.92;;;10.40;49.20;;;;;;5066260;28;20048;-66
2021/04/22 00:12:13;;;;;;;16.88;3.35;;;10.40;49.30;;;;;;5063942;28;20036;-65
2021/04/22 00:14:41;;;;;;;20.77;3.40;;;10.50;49.30;;;;;;5065442;28;20059;-65
2021/04/22 00:17:12;;;;;;;15.82;3.88;;;10.50;49.20;;;;;;5068007;28;20038;-65
2021/04/22 00:19:38;;;;;;;14.15;3.65;;;10.60;49.00;;;;;;5068500;28;20048;-65
2021/04/22 00:22:04;;;;;;;16.92;3.00;;;10.60;48.80;;;;;;5069981;28;20035;-65
2021/04/22 00:24:30;;;;;;;23.60;3.60;;;10.60;48.40;;;;;;5064878;28;20036;-66
2021/04/22 00:26:55;;;;;;;15.38;3.22;;;10.60;48.30;;;;;;5038482;28;20107;-65
2021/04/22 00:29:21;;;;;;;20.45;3.97;;;10.60;48.40;;;;;;5063909;28;20611;-65
2021/04/22 00:31:46;;;;;;;25.75;3.85;;;10.60;48.40;;;;;;5045443;28;20038;-65
2021/04/22 00:34:14;;;;;;;21.25;3.72;;;10.70;48.30;;;;;;5066384;28;20040;-65
2021/04/22 00:36:40;;;;;;;27.45;3.55;;;10.70;48.30;;;;;;5059358;28;20033;-66
2021/04/22 00:39:06;;;;;;;23.67;3.97;;;10.70;48.40;;;;;;5065971;28;20036;-65
2021/04/22 00:41:37;;;;;;;23.90;3.50;;;10.70;48.30;;;;;;5046333;28;20032;-65
2021/04/22 00:44:08;;;;;;;17.20;3.25;;;10.70;48.30;;;;;;5056729;28;20040;-65
2021/04/22 00:46:37;;;;;;;24.85;3.78;;;10.70;48.30;;;;;;5061285;28;20032;-65
2021/04/22 00:49:05;;;;;;;20.40;3.75;;;10.70;48.40;;;;;;5062373;28;20109;-65
2021/04/22 00:51:31;;;;;;;20.73;3.70;;;10.60;48.40;;;;;;5058414;28;20059;-65
2021/04/22 00:54:00;;;;;;;20.65;4.35;;;10.70;48.40;;;;;;5041340;28;20036;-65
2021/04/22 00:56:26;;;;;;;20.73;3.30;;;10.60;48.50;;;;;;5045368;28;20040;-65
2021/04/22 00:58:54;;;;;;;21.75;3.40;;;10.70;48.60;;;;;;5058877;28;20052;-65
2021/04/22 01:01:19;;;;;;;20.67;3.55;;;10.60;48.50;;;;;;5069291;28;20085;-65
2021/04/22 01:03:50;;;;;;;18.48;4.03;;;10.70;48.60;;;;;;5063614;28;20061;-65
2021/04/22 01:06:19;;;;;;;28.27;3.65;;;10.70;48.60;;;;;;5038286;28;20071;-65
2021/04/22 01:08:44;;;;;;;21.48;3.65;;;10.70;48.50;;;;;;5055054;28;20071;-65
2021/04/22 01:11:12;;;;;;;13.80;3.30;;;10.70;48.40;;;;;;5068299;28;20134;-65
2021/04/22 01:13:43;;;;;;;16.55;4.00;;;10.70;48.30;;;;;;5066811;28;20245;-65
2021/04/22 01:16:08;;;;;;;25.15;3.72;;;10.70;48.20;;;;;;5062481;28;20076;-65
2021/04/22 01:18:34;;;;;;;16.35;3.30;;;10.60;48.30;;;;;;5065069;28;20530;-65
2021/04/22 01:21:02;;;;;;;19.65;3.05;;;10.60;48.40;;;;;;5056025;28;20398;-65
2021/04/22 01:23:28;;;;;;;23.63;3.30;;;10.60;48.40;;;;;;5050712;28;20040;-65
2021/04/22 01:25:58;;;;;;;20.70;3.20;;;10.60;48.30;;;;;;5062701;28;20055;-65
2021/04/22 01:28:24;;;;;;;25.15;3.90;;;10.60;48.20;;;;;;5064965;28;20036;-65
2021/04/22 01:30:55;;;;;;;15.60;3.05;;;10.60;48.20;;;;;;5061314;28;20036;-66
2021/04/22 01:33:30;;;;;;;22.48;3.33;;;10.70;48.20;;;;;;5036176;28;20535;-66
2021/04/22 01:35:58;;;;;;;14.70;3.28;;;10.70;48.10;;;;;;5058190;28;20402;-65
2021/04/22 01:38:25;;;;;;;19.13;3.13;;;10.70;48.10;;;;;;5048904;28;23318;-65
2021/04/22 01:40:57;;;;;;;21.92;4.10;;;10.70;47.90;;;;;;5041970;28;20038;-66
2021/04/22 01:43:22;;;;;;;15.02;3.50;;;10.70;47.90;;;;;;5017512;28;20369;-65
2021/04/22 01:45:50;;;;;;;21.27;3.78;;;10.70;47.80;;;;;;5034534;28;20048;-66
2021/04/22 01:48:18;;;;;;;18.55;3.47;;;10.70;47.70;;;;;;5025442;28;20055;-65
2021/04/22 01:50:48;;;;;;;28.67;3.65;;;10.70;47.80;;;;;;5027322;28;20071;-65
2021/04/22 01:53:14;;;;;;;19.10;3.45;;;10.70;47.70;;;;;;5050949;28;20508;-66
2021/04/22 01:55:45;;;;;;;25.33;3.40;;;10.80;47.70;;;;;;5037208;28;20047;-66
2021/04/22 01:58:17;;;;;;;21.92;4.05;;;10.70;47.60;;;;;;5053044;28;20093;-65
2021/04/22 02:00:47;;;;;;;26.75;3.80;;;10.70;47.60;;;;;;5040383;28;20032;-65
2021/04/22 02:03:13;;;;;;;20.02;4.28;;;10.70;47.50;;;;;;5038387;28;20039;-65
2021/04/22 02:05:42;;;;;;;17.58;3.95;;;10.60;47.50;;;;;;5059682;28;20036;-65
2021/04/22 02:08:11;;;;;;;16.50;3.25;;;10.70;47.60;;;;;;5053930;28;20047;-65
2021/04/22 02:10:40;;;;;;;25.27;4.25;;;10.60;47.60;;;;;;5057588;28;20047;-65
2021/04/22 02:13:07;;;;;;;20.65;3.80;;;10.60;47.60;;;;;;5067922;28;20115;-65
2021/04/22 02:15:36;;;;;;;24.42;3.88;;;10.70;47.60;;;;;;5044874;28;20028;-65
2021/04/22 02:18:05;;;;;;;14.65;3.13;;;10.60;47.50;;;;;;5024873;28;20048;-65
2021/04/22 02:20:33;;;;;;;18.70;4.35;;;10.60;47.60;;;;;;5036192;28;20036;-66
2021/04/22 02:22:59;;;;;;;18.95;3.47;;;10.60;47.70;;;;;;5053502;28;20966;-65
2021/04/22 02:25:28;;;;;;;19.05;3.30;;;10.60;47.60;;;;;;5050431;28;20050;-65
2021/04/22 02:27:55;;;;;;;20.23;3.60;;;10.60;47.60;;;;;;5054658;28;20598;-65
2021/04/22 02:30:23;;;;;;;19.00;4.03;;;10.60;47.50;;;;;;5059007;28;20059;-65
2021/04/22 02:32:53;;;;;;;27.75;3.88;;;10.60;47.60;;;;;;5057296;28;20050;-66
2021/04/22 02:35:20;;;;;;;25.95;3.75;;;10.60;47.60;;;;;;5042550;28;20409;-65
2021/04/22 02:37:46;;;;;;;17.50;3.90;;;10.60;47.50;;;;;;5040503;28;20032;-65
2021/04/22 02:40:15;;;;;;;24.77;4.05;;;10.50;47.60;;;;;;5053174;28;20436;-66
2021/04/22 02:42:42;;;;;;;26.95;4.07;;;10.40;47.60;;;;;;5040948;28;20119;-65
2021/04/22 02:45:10;;;;;;;18.40;3.22;;;10.30;47.70;;;;;;5054823;28;20946;-65
2021/04/22 02:47:38;;;;;;;33.80;4.78;;;10.20;47.90;;;;;;5053837;28;20048;-65
2021/04/22 02:50:10;;;;;;;20.73;3.70;;;10.30;48.30;;;;;;5067140;28;20055;-65
2021/04/22 02:52:36;;;;;;;18.23;3.42;;;10.30;48.40;;;;;;5060204;28;20044;-65
2021/04/22 02:55:05;;;;;;;21.98;3.65;;;10.30;48.30;;;;;;5041502;28;21645;-65
2021/04/22 02:57:30;;;;;;;21.38;3.58;;;10.40;48.30;;;;;;5034419;28;20120;-65
2021/04/22 02:59:58;;;;;;;23.25;4.38;;;10.40;48.30;;;;;;5059570;28;20052;-64
2021/04/22 03:02:26;;;;;;;21.48;3.63;;;10.40;48.40;;;;;;5041347;28;20039;-66
2021/04/22 03:04:51;;;;;;;25.98;4.47;;;10.50;48.40;;;;;;5040640;28;20042;-66
2021/04/22 03:07:17;;;;;;;26.38;4.10;;;10.50;48.40;;;;;;5062932;28;20036;-65
2021/04/22 03:09:45;;;;;;;20.35;3.55;;;10.50;48.40;;;;;;5059216;28;20096;-65
2021/04/22 03:12:11;;;;;;;20.58;3.70;;;10.50;48.40;;;;;;5061046;28;20506;-66
2021/04/22 03:14:38;;;;;;;19.48;4.22;;;10.50;48.40;;;;;;5057136;28;20054;-65
2021/04/22 03:17:04;;;;;;;24.88;4.32;;;10.50;48.40;;;;;;5052636;28;20041;-65
2021/04/22 03:19:32;;;;;;;24.55;4.10;;;10.50;48.40;;;;;;5059785;28;20451;-66
2021/04/22 03:22:00;;;;;;;17.77;3.42;;;10.60;48.30;;;;;;5051553;28;20062;-66
2021/04/22 03:24:30;;;;;;;26.48;3.67;;;10.60;48.40;;;;;;5054935;28;20236;-65
2021/04/22 03:26:55;;;;;;;22.92;4.18;;;10.60;48.30;;;;;;5044151;28;20133;-66
2021/04/22 03:29:21;;;;;;;33.50;3.92;;;10.60;48.20;;;;;;5040512;28;20044;-65
2021/04/22 03:31:51;;;;;;;19.85;3.47;;;10.60;48.10;;;;;;5056075;28;20040;-66
2021/04/22 03:34:19;;;;;;;14.27;3.70;;;10.60;48.00;;;;;;5063420;28;20121;-65
2021/04/22 03:36:45;;;;;;;21.38;3.67;;;10.60;48.00;;;;;;5050012;28;20123;-66
2021/04/22 03:39:11;;;;;;;16.23;3.90;;;10.70;48.10;;;;;;5058254;28;20050;-65
2021/04/22 03:41:40;;;;;;;31.02;4.68;;;10.60;48.10;;;;;;5046087;28;20036;-66
2021/04/22 03:44:08;;;;;;;21.08;3.85;;;10.70;48.10;;;;;;5055020;28;20394;-65
2021/04/22 03:46:34;;;;;;;17.75;3.92;;;10.70;48.10;;;;;;5060711;28;20032;-65
2021/04/22 03:49:04;;;;;;;20.30;3.20;;;10.70;48.00;;;;;;5044178;28;20158;-65
2021/04/22 03:51:30;;;;;;;20.85;4.68;;;10.70;47.90;;;;;;5058187;28;20051;-66
2021/04/22 03:53:58;;;;;;;26.83;3.78;;;10.70;47.90;;;;;;5058754;28;20029;-65
2021/04/22 03:56:24;;;;;;;26.27;4.50;;;10.70;47.80;;;;;;5056432;28;20036;-66
2021/04/22 03:58:52;;;;;;;19.88;3.42;;;10.70;47.90;;;;;;5038923;28;20536;-66
2021/04/22 04:01:18;;;;;;;15.20;4.18;;;10.60;47.80;;;;;;5045684;28;20123;-65
2021/04/22 04:03:43;;;;;;;30.45;4.78;;;10.70;47.90;;;;;;5054180;28;20032;-65
2021/04/22 04:06:11;;;;;;;21.05;3.50;;;10.70;47.90;;;;;;5055032;28;20036;-65
2021/04/22 04:08:42;;;;;;;16.98;3.42;;;10.70;47.90;;;;;;5020579;28;20040;-65
2021/04/22 04:11:07;;;;;;;17.27;4.03;;;10.70;47.90;;;;;;5058103;28;20168;-65
2021/04/22 04:13:35;;;;;;;24.52;3.92;;;10.70;47.90;;;;;;5055199;28;20041;-65
2021/04/22 04:16:03;;;;;;;17.40;3.70;;;10.70;48.00;;;;;;5049538;28;20033;-65
2021/04/22 04:18:31;;;;;;;25.88;3.65;;;10.70;47.90;;;;;;5044725;28;20162;-65
2021/04/22 04:20:59;;;;;;;20.23;3.20;;;10.70;47.80;;;;;;5037563;28;20103;-65
2021/04/22 04:23:25;;;;;;;23.67;3.55;;;10.70;47.70;;;;;;5044164;28;20048;-65
2021/04/22 04:25:51;;;;;;;20.58;4.15;;;10.70;47.70;;;;;;5036936;28;20032;-65
2021/04/22 04:28:19;;;;;;;21.38;3.53;;;10.70;47.70;;;;;;5050747;28;20447;-65
2021/04/22 04:30:45;;;;;;;18.45;3.20;;;10.80;47.80;;;;;;5028426;28;20036;-65
2021/04/22 04:33:11;;;;;;;22.52;4.03;;;10.80;47.70;;;;;;5061207;28;20043;-65
2021/04/22 04:35:38;;;;;;;20.05;3.88;;;10.80;47.60;;;;;;5070003;28;20050;-65
2021/04/22 04:38:06;;;;;;;18.83;3.78;;;10.80;47.70;;;;;;5066985;28;20044;-65
2021/04/22 04:40:33;;;;;;;17.67;3.53;;;10.80;47.80;;;;;;5069039;28;20039;-65
2021/04/22 04:43:01;;;;;;;23.10;3.97;;;10.90;47.80;;;;;;5040030;28;20044;-64
2021/04/22 04:45:29;;;;;;;18.98;3.72;;;10.80;47.70;;;;;;5057558;28;20067;-64
2021/04/22 04:47:55;;;;;;;19.90;3.97;;;10.90;47.70;;;;;;5062144;28;20050;-64
2021/04/22 04:50:21;;;;;;;21.35;4.00;;;10.90;47.70;;;;;;5059300;28;20490;-64
2021/04/22 04:52:46;;;;;;;23.95;3.88;;;10.90;47.60;;;;;;5057202;28;20222;-64
2021/04/22 04:55:13;;;;;;;15.68;3.30;;;10.90;47.50;;;;;;5059232;28;20397;-65
2021/04/22 04:57:39;;;;;;;15.27;3.55;;;10.90;47.60;;;;;;5063219;28;20043;-65
2021/04/22 05:00:06;;;;;;;24.13;3.92;;;10.90;47.60;;;;;;5059847;28;20584;-64
2021/04/22 05:02:34;;;;;;;30.45;4.03;;;10.90;47.60;;;;;;5069938;28;20041;-65
2021/04/22 05:05:01;;;;;;;14.63;3.35;;;10.90;47.50;;;;;;5069754;28;20059;-65
2021/04/22 05:07:26;;;;;;;24.73;3.80;;;11.00;47.40;;;;;;5067445;28;20036;-65
2021/04/22 05:09:52;;;;;;;22.35;4.10;;;10.90;47.30;;;;;;5069968;28;20072;-64
2021/04/22 05:12:18;;;;;;;24.25;3.53;;;10.90;47.30;;;;;;5070186;28;20132;-64
2021/04/22 05:14:43;;;;;;;21.42;2.88;;;10.90;47.20;;;;;;5058546;28;20054;-64
2021/04/22 05:17:09;;;;;;;11.55;3.28;;;10.90;47.20;;;;;;5069424;28;20040;-64
2021/04/22 05:19:34;;;;;;;15.50;3.13;;;10.90;47.20;;;;;;5070667;28;20054;-65
2021/04/22 05:22:00;;;;;;;14.60;3.10;;;11.00;47.10;;;;;;5069351;28;20036;-65
2021/04/22 05:24:28;;;;;;;18.30;3.72;;;11.00;47.20;;;;;;5058937;28;20082;-64
2021/04/22 05:26:55;;;;;;;20.90;3.30;;;11.00;47.10;;;;;;5066498;28;20536;-65
2021/04/22 05:29:23;;;;;;;23.85;3.75;;;11.10;47.00;;;;;;5066226;28;20051;-64
2021/04/22 05:31:51;;;;;;;24.00;3.30;;;11.10;47.00;;;;;;5052581;28;20075;-64
2021/04/22 05:34:17;;;;;;;17.35;3.30;;;11.20;47.00;;;;;;5065245;28;20047;-64
2021/04/22 05:36:43;;;;;;;15.85;3.30;;;11.20;47.00;;;;;;5064183;28;20032;-65
2021/04/22 05:39:13;;;;;;;23.15;3.45;;;11.30;47.00;;;;;;5070575;28;20071;-64
2021/04/22 05:41:41;;;;;;;14.75;3.22;;;11.30;46.80;;;;;;5069406;28;20036;-64
2021/04/22 05:44:07;;;;;;;17.98;3.28;;;11.40;46.70;;;;;;5064715;28;20032;-65
2021/04/22 05:46:32;;;;;;;22.75;3.92;;;11.40;46.40;;;;;;5057225;28;20285;-65
2021/04/22 05:48:58;;;;;;;18.77;3.55;;;11.40;46.40;;;;;;5059166;28;22308;-65
2021/04/22 05:51:23;;;;;;;20.05;3.15;;;11.50;46.50;;;;;;5046277;28;20689;-65
2021/04/22 05:53:54;;;;;;;19.27;3.15;;;11.50;46.40;;;;;;5061409;28;20040;-65
2021/04/22 05:56:20;;;;;;;28.00;3.90;;;11.60;46.30;;;;;;5055096;28;20074;-65
2021/04/22 05:58:48;;;;;;;18.95;3.47;;;11.60;46.20;;;;;;5060055;28;20543;-65
2021/04/22 06:01:14;;;;;;;18.42;3.17;;;11.70;46.00;;;;;;5054508;28;20078;-65
2021/04/22 06:03:42;;;;;;;22.90;3.15;;;11.70;46.00;;;;;;5040506;28;20032;-65
2021/04/22 06:06:10;;;;;;;22.10;3.78;;;11.70;46.00;;;;;;5060228;28;20038;-64
2021/04/22 06:08:35;;;;;;;22.50;3.72;;;11.80;45.80;;;;;;5043840;28;20130;-65
2021/04/22 06:11:01;;;;;;;24.58;4.43;;;11.90;45.90;;;;;;5059132;28;20127;-65
2021/04/22 06:13:29;;;;;;;18.20;3.58;;;12.00;45.60;;;;;;5056766;28;20048;-65
2021/04/22 06:15:54;;;;;;;15.40;3.55;;;12.20;45.40;;;;;;5058215;28;20051;-65
2021/04/22 06:18:24;;;;;;;17.08;2.95;;;12.20;45.30;;;;;;5057466;28;20410;-65
2021/04/22 06:20:50;;;;;;;13.68;3.40;;;12.30;45.20;;;;;;5055616;28;20042;-65
2021/04/22 06:23:18;;;;;;;12.60;3.05;;;12.40;45.00;;;;;;5054246;28;20036;-64
2021/04/22 06:25:43;;;;;;;14.50;3.42;;;12.60;44.80;;;;;;5052751;28;21221;-65
2021/04/22 06:28:09;;;;;;;21.73;4.00;;;12.60;44.80;;;;;;5048989;28;20036;-65
2021/04/22 06:30:37;;;;;;;14.85;3.13;;;12.70;44.70;;;;;;5042062;28;20127;-64
2021/04/22 06:33:05;;;;;;;14.98;2.75;;;12.80;44.50;;;;;;5045704;28;20126;-64
2021/04/22 06:35:35;;;;;;;18.13;3.67;;;12.90;44.20;;;;;;5052080;28;20541;-65
2021/04/22 06:38:01;;;;;;;10.80;3.22;;;13.00;44.10;;;;;;5074717;28;20071;-65
2021/04/22 06:40:26;;;;;;;16.15;3.55;;;13.10;44.70;;;;;;5074410;28;20610;-65
2021/04/22 06:42:57;;;;;;;21.95;3.22;;;13.20;44.00;;;;;;5073729;28;20032;-65
2021/04/22 06:45:24;;;;;;;16.48;3.88;;;13.30;43.90;;;;;;5071041;28;20661;-65
2021/04/22 06:47:53;;;;;;;17.65;3.00;;;13.40;43.60;;;;;;5070980;28;20512;-65
2021/04/22 06:50:23;;;;;;;14.07;3.10;;;13.50;43.30;;;;;;5068213;28;20040;-65
2021/04/22 06:52:50;;;;;;;11.35;2.83;;;13.70;42.80;;;;;;5063238;28;20035;-65
2021/04/22 06:55:21;;;;;;;20.50;3.45;;;13.70;42.50;;;;;;5075532;28;20043;-65
2021/04/22 06:57:48;;;;;;;17.52;3.40;;;13.80;42.60;;;;;;5074108;28;20499;-65
2021/04/22 07:00:19;;;;;;;18.42;3.63;;;14.00;42.50;;;;;;5072499;28;20042;-65
2021/04/22 07:02:47;;;;;;;17.35;3.45;;;14.20;42.00;;;;;;5074161;28;20413;-65
2021/04/22 07:05:15;;;;;;;18.38;2.92;;;14.40;42.00;;;;;;5071823;28;20472;-65
2021/04/22 07:07:41;;;;;;;18.67;3.40;;;14.50;41.90;;;;;;5055772;28;20036;-65
2021/04/22 07:10:13;;;;;;;22.13;3.40;;;14.70;41.40;;;;;;5052904;28;20274;-65
2021/04/22 07:12:39;;;;;;;19.27;3.15;;;14.80;41.10;;;;;;5076820;28;20675;-65
2021/04/22 07:15:09;;;;;;;15.65;3.42;;;14.80;40.70;;;;;;5053501;28;20042;-65
2021/04/22 07:17:36;;;;;;;15.57;2.90;;;14.80;40.60;;;;;;5070244;28;20047;-65
2021/04/22 07:20:12;;;;;;;18.95;3.38;;;14.70;40.60;;;;;;5069627;28;20044;-65
2021/04/22 07:22:40;;;;;;;17.77;3.85;;;14.70;40.60;;;;;;5076300;28;20112;-65
2021/04/22 07:25:08;;;;;;;17.27;3.33;;;14.70;40.60;;;;;;5072064;28;20066;-65
2021/04/22 07:27:34;;;;;;;13.80;3.10;;;14.70;40.50;;;;;;5075657;28;20509;-65
2021/04/22 07:30:02;;;;;;;20.45;3.13;;;14.80;40.50;;;;;;5064013;28;20465;-65
2021/04/22 07:32:27;;;;;;;18.45;3.03;;;14.90;40.00;;;;;;5063376;28;20122;-66
2021/04/22 07:34:58;;;;;;;16.70;3.50;;;14.90;40.00;;;;;;5069855;28;20035;-65
2021/04/22 07:37:26;;;;;;;16.95;3.00;;;15.00;39.80;;;;;;5071595;28;20082;-65
2021/04/22 07:39:51;;;;;;;16.55;2.80;;;14.90;39.10;;;;;;5071491;28;20043;-66
2021/04/22 07:42:20;;;;;;;9.80;2.53;;;14.90;39.20;;;;;;5065983;28;20426;-65
2021/04/22 07:44:47;;;;;;;14.27;2.83;;;15.00;39.20;;;;;;5068250;28;20053;-65
2021/04/22 07:47:18;;;;;;;11.55;2.75;;;15.30;38.40;;;;;;5050349;28;20032;-65
2021/04/22 07:49:45;;;;;;;13.18;2.58;;;15.30;38.30;;;;;;5073133;28;20040;-65
2021/04/22 07:52:11;;;;;;;15.77;2.78;;;;;;;;;;5076162;28;20101;-66
2021/04/22 07:54:37;;;;;;;7.47;2.58;;;;;;;;;;5078086;28;20084;-66
2021/04/22 07:57:05;;;;;;;12.40;2.58;;;16.50;39.20;;;;;;5054623;28;20068;-66
2021/04/22 07:59:31;;;;;;;10.85;2.55;;;21.90;30.70;;;;;;5072439;28;20103;-66
2021/04/22 08:01:57;;;;;;;12.27;2.45;;;22.40;28.70;;;;;;5068363;28;20111;-66
2021/04/22 08:04:22;;;;;;;8.70;2.42;;;;;;;;;;5072019;28;20046;-66
2021/04/22 08:06:50;;;;;;;12.52;2.25;;;22.90;28.30;;;;;;5048687;28;20067;-66
2021/04/22 08:09:16;;;;;;;22.77;2.85;;;25.20;26.20;;;;;;5073009;28;20413;-66
2021/04/22 08:11:42;;;;;;;8.57;2.47;;;26.40;25.10;;;;;;5055153;28;20032;-66
2021/04/22 08:14:08;;;;;;;10.85;2.80;;;;;;;;;;5072062;28;20055;-66
2021/04/22 08:16:34;;;;;;;8.80;2.45;;;;;;;;;;5074181;28;20062;-66
2021/04/22 08:19:03;;;;;;;11.90;3.00;;;26.50;24.00;;;;;;5070117;28;20044;-66
2021/04/22 08:21:29;;;;;;;9.80;3.25;;;23.10;26.30;;;;;;5071193;28;20089;-65
2021/04/22 08:23:54;;;;;;;17.27;2.80;;;23.30;26.40;;;;;;5068879;28;20039;-66
2021/04/22 08:26:20;;;;;;;9.60;2.30;;;24.10;25.90;;;;;;5049925;28;20044;-66
2021/04/22 08:28:47;;;;;;;10.20;2.20;;;25.20;24.80;;;;;;5069384;28;20032;-66
2021/04/22 08:31:21;;;;;;;12.23;2.60;;;;;;;;;;5076663;28;20028;-66
2021/04/22 08:33:47;;;;;;;18.48;3.22;;;;;;;;;;5070418;28;20141;-66
2021/04/22 08:36:14;;;;;;;16.88;3.78;;;;;;;;;;5069067;28;20454;-66
2021/04/22 08:38:39;;;;;;;20.27;6.68;;;26.30;23.70;;;;;;5066743;28;20388;-66
2021/04/22 08:41:07;;;;;;;10.07;2.60;;;29.70;21.10;;;;;;5048055;28;20548;-66
2021/04/22 08:43:33;;;;;;;9.70;2.70;;;29.90;20.00;;;;;;5064016;28;20508;-66
2021/04/22 08:46:01;;;;;;;10.35;2.20;;;29.10;20.20;;;;;;5057784;28;20040;-66
2021/04/22 08:48:29;;;;;;;11.27;2.20;;;28.80;20.40;;;;;;5068495;28;20097;-66
2021/04/22 08:51:00;;;;;;;7.25;2.20;;;29.20;20.00;;;;;;5064541;28;20070;-66
2021/04/22 08:53:30;;;;;;;15.32;3.00;;;29.70;19.60;;;;;;5070324;28;20040;-66
2021/04/22 08:55:57;;;;;;;8.25;2.15;;;30.30;19.30;;;;;;5064727;28;20542;-67
2021/04/22 08:58:23;;;;;;;14.48;2.83;;;30.70;19.10;;;;;;5062934;28;20447;-66
2021/04/22 09:00:52;;;;;;;8.45;2.35;;;31.00;18.80;;;;;;5067623;28;20032;-66
2021/04/22 09:03:22;;;;;;;9.38;2.70;;;30.20;18.70;;;;;;5064030;28;20067;-66
2021/04/22 09:05:48;;;;;;;10.15;2.55;;;28.80;19.50;;;;;;5048139;28;20433;-66
2021/04/22 09:08:14;;;;;;;13.13;2.60;;;27.90;20.20;;;;;;5045955;28;20441;-66
2021/04/22 09:10:45;;;;;;;11.57;2.00;;;28.00;20.90;;;;;;5058607;28;20032;-66
2021/04/22 09:13:16;;;;;;;12.38;2.20;;;28.80;20.40;;;;;;5069364;28;20093;-66
2021/04/22 09:15:44;;;;;;;10.80;2.65;;;;;;;;;;5051385;28;20405;-66
2021/04/22 09:18:13;;;;;;;8.52;2.58;;;29.70;19.80;;;;;;5066904;28;20040;-66
2021/04/22 09:20:47;;;;;;;8.95;2.65;;;28.90;19.60;;;;;;5065535;28;20042;-66
2021/04/22 09:23:15;;;;;;;11.85;2.65;;;27.80;20.10;;;;;;5078082;28;20109;-66
2021/04/22 09:25:41;;;;;;;8.63;2.70;;;26.60;20.90;;;;;;5070957;28;20044;-66
2021/04/22 09:28:08;;;;;;;12.48;2.20;;;25.50;22.00;;;;;;5076930;28;20057;-66
2021/04/22 09:30:46;;;;;;;13.07;2.67;;;25.50;22.60;;;;;;5078078;28;20032;-66
2021/04/22 09:33:27;;;;;;;13.18;2.80;;;25.50;22.10;;;;;;5071410;28;20422;-65
2021/04/22 09:36:03;;;;;;;17.08;3.25;;;24.80;22.40;;;;;;5060157;28;20089;-66
2021/04/22 09:38:28;;;;;;;16.10;2.97;;;23.90;23.10;;;;;;5074789;28;21141;-65
2021/04/22 09:40:56;;;;;;;15.10;3.00;;;23.50;24.10;;;;;;5071594;28;20028;-65
2021/04/22 09:43:24;;;;;;;24.33;3.75;;;23.60;24.10;;;;;;5077922;28;20151;-65
2021/04/22 09:45:54;;;;;;;10.13;2.33;;;24.40;24.30;;;;;;5067886;28;20119;-66
2021/04/22 09:48:29;;;;;;;11.55;2.67;;;25.70;22.80;;;;;;5052278;28;20040;-66
2021/04/22 09:50:58;;;;;;;15.88;2.97;;;27.00;21.70;;;;;;5072951;28;20488;-66
2021/04/22 09:53:28;;;;;;;8.65;2.83;;;27.80;20.80;;;;;;5065675;28;20028;-66
2021/04/22 09:55:58;;;;;;;12.13;2.53;;;27.40;20.70;;;;;;5070680;28;20143;-66
2021/04/22 09:58:30;;;;;;;7.45;2.60;;;26.40;21.40;;;;;;5075078;28;20647;-65
2021/04/22 10:00:56;;;;;;;14.57;2.78;;;26.40;22.00;;;;;;5074813;28;20028;-66
2021/04/22 10:03:22;;;;;;;14.98;2.97;;;27.20;21.80;;;;;;5077260;28;20036;-66
2021/04/22 10:05:59;;;;;;;11.27;2.40;;;27.70;20.80;;;;;;5074391;28;20725;-65
2021/04/22 10:08:26;;;;;;;12.02;3.13;;;27.30;20.80;;;;;;5075219;28;20043;-65
2021/04/22 10:10:57;;;;;;;12.75;3.00;;;26.40;21.30;;;;;;5056194;28;20028;-66
2021/04/22 10:13:23;;;;;;;9.10;2.88;;;25.60;22.30;;;;;;5068910;28;20043;-66
2021/04/22 10:15:51;;;;;;;10.52;2.78;;;25.70;22.50;;;;;;5048539;28;20028;-66
2021/04/22 10:18:18;;;;;;;8.52;2.83;;;25.50;22.60;;;;;;5043114;28;20044;-66
2021/04/22 10:20:49;;;;;;;7.28;2.53;;;25.80;22.70;;;;;;5051382;28;20035;-66
2021/04/22 10:23:17;;;;;;;8.57;2.67;;;26.00;22.50;;;;;;5072526;28;20074;-66
2021/04/22 10:25:44;;;;;;;14.05;3.47;;;25.80;22.10;;;;;;5071078;28;20040;-66
2021/04/22 10:28:12;;;;;;;13.32;2.67;;;25.20;22.80;;;;;;5072054;28;20131;-65
2021/04/22 10:30:41;;;;;;;17.88;2.70;;;25.00;23.50;;;;;;5056422;28;20043;-66
2021/04/22 10:33:10;;;;;;;9.43;3.10;;;25.40;23.40;;;;;;5053534;28;20032;-66
2021/04/22 10:35:38;;;;;;;13.60;2.97;;;25.40;23.00;;;;;;5055860;28;20028;-66
2021/04/22 10:38:04;;;;;;;9.38;3.00;;;25.10;23.50;;;;;;5077467;28;20039;-66
2021/04/22 10:40:34;;;;;;;10.38;2.75;;;25.00;23.50;;;;;;5054814;28;20040;-66
2021/04/22 10:43:04;;;;;;;9.05;2.70;;;24.60;23.40;;;;;;5057594;28;20047;-66
2021/04/22 10:45:35;;;;;;;14.40;3.17;;;24.00;23.80;;;;;;5044861;28;20063;-66
2021/04/22 10:48:04;;;;;;;12.38;3.22;;;23.50;24.30;;;;;;5062879;28;20123;-66
2021/04/22 10:50:36;;;;;;;15.98;3.88;;;23.20;24.70;;;;;;5045602;28;20823;-66
2021/04/22 10:53:08;;;;;;;14.23;2.97;;;22.70;25.30;;;;;;5064150;28;20036;-66
2021/04/22 10:55:35;;;;;;;13.25;3.47;;;22.20;25.80;;;;;;5048043;28;20040;-66
2021/04/22 10:58:29;;;;;;;14.63;3.10;;;21.60;26.30;;;;;;5049000;28;20119;-66
2021/04/22 11:01:09;;;;;;;14.27;3.53;;;21.40;26.60;;;;;;5064957;28;20036;-66
2021/04/22 11:03:44;;;;;;;15.77;3.25;;;21.10;26.60;;;;;;5061172;28;20444;-66
2021/04/22 11:06:11;;;;;;;18.80;3.58;;;20.80;27.10;;;;;;5049353;28;20036;-66
2021/04/22 11:08:51;;;;;;;10.02;3.00;;;20.70;27.40;;;;;;5066817;28;20565;-66
2021/04/22 11:11:28;;;;;;;8.68;3.42;;;20.40;27.70;;;;;;5041671;28;20692;-65
2021/04/22 11:14:14;;;;;;;7.57;2.90;;;20.20;28.30;;;;;;5058631;28;20041;-66
2021/04/22 11:16:46;;;;;;;5.43;2.42;;;20.30;28.10;;;;;;5036174;28;20037;-65
2021/04/22 11:19:25;;;;;;;8.20;2.85;;;20.80;28.10;;;;;;5049006;28;20040;-66
2021/04/22 11:21:54;;;;;;;12.23;3.15;;;21.20;27.50;;;;;;5054749;28;20094;-66
2021/04/22 11:24:32;;;;;;;16.35;3.08;;;21.00;27.40;;;;;;5046687;28;20044;-66
2021/04/22 11:27:09;;;;;;;14.35;3.53;;;20.70;27.50;;;;;;5049165;28;20102;-66
2021/04/22 11:29:51;;;;;;;10.45;3.17;;;20.30;27.90;;;;;;5067691;28;20049;-66
2021/04/22 11:32:31;;;;;;;10.25;3.65;;;20.10;28.50;;;;;;5056830;28;20036;-67
2021/04/22 11:35:07;;;;;;;11.70;3.65;;;20.00;28.60;;;;;;5027722;28;20116;-66
2021/04/22 11:37:38;;;;;;;9.35;2.67;;;20.00;28.50;;;;;;5027387;28;20105;-66
2021/04/22 11:40:16;;;;;;;10.80;3.55;;;20.10;29.00;;;;;;5036826;28;20078;-66
2021/04/22 11:42:48;;;;;;;9.55;2.95;;;20.30;28.80;;;;;;5044583;28;20086;-67
2021/04/22 11:45:17;;;;;;;14.23;3.28;;;20.30;28.80;;;;;;5052636;28;20899;-66
2021/04/22 11:47:58;;;;;;;14.93;3.35;;;20.30;28.90;;;;;;5050783;28;20047;-66
2021/04/22 11:50:28;;;;;;;11.82;2.72;;;20.10;29.00;;;;;;5036557;28;20151;-66
2021/04/22 11:52:59;;;;;;;14.15;3.33;;;20.30;28.90;;;;;;5055088;28;20093;-66
2021/04/22 11:55:33;;;;;;;10.70;2.65;;;20.40;28.50;;;;;;5041375;28;20098;-66
2021/04/22 11:58:09;;;;;;;6.70;3.10;;;20.20;28.50;;;;;;5047165;28;20090;-66
2021/04/22 12:00:43;;;;;;;8.68;3.05;;;20.00;28.70;;;;;;5052798;28;20451;-66
2021/04/22 12:03:11;;;;;;;10.65;2.78;;;19.80;29.10;;;;;;5062295;28;20089;-66
2021/04/22 12:05:40;;;;;;;9.68;3.30;;;19.80;29.50;;;;;;5054631;28;20190;-66
2021/04/22 12:08:13;;;;;;;8.25;2.72;;;20.10;29.20;;;;;;5051308;28;20102;-66
2021/04/22 12:10:46;;;;;;;15.02;3.30;;;20.30;28.90;;;;;;5032655;28;20249;-66
2021/04/22 12:13:17;;;;;;;11.13;3.05;;;20.30;28.80;;;;;;5046528;28;20032;-66
2021/04/22 12:15:47;;;;;;;9.43;3.38;;;20.00;29.10;;;;;;5032803;28;20036;-66
2021/04/22 12:18:25;;;;;;;9.95;3.63;;;19.70;29.60;;;;;;5058421;28;20036;-66
2021/04/22 12:20:52;;;;;;;10.63;2.88;;;19.50;30.00;;;;;;5049706;28;20041;-66
2021/04/22 12:23:33;;;;;;;11.68;3.03;;;19.60;30.10;;;;;;5051133;28;20143;-66
2021/04/22 12:26:20;;;;;;;19.77;3.67;;;19.80;30.50;;;;;;5047453;28;20029;-67
2021/04/22 12:29:12;;;;;;;13.45;3.15;;;20.00;30.00;;;;;;5043106;28;20047;-66
2021/04/22 12:31:47;;;;;;;8.65;3.15;;;20.00;29.80;;;;;;5051346;28;20111;-67
2021/04/22 12:34:17;;;;;;;7.85;2.88;;;20.00;29.90;;;;;;5049453;28;20040;-66
2021/04/22 12:36:57;;;;;;;9.30;2.67;;;20.00;30.00;;;;;;5046338;28;20029;-66
2021/04/22 12:39:36;;;;;;;8.95;2.83;;;20.10;29.40;;;;;;5041735;28;21005;-66
2021/04/22 12:42:14;;;;;;;9.25;3.33;;;20.20;29.70;;;;;;5029905;28;20049;-66
2021/04/22 12:44:56;;;;;;;12.68;2.95;;;20.20;29.90;;;;;;5045600;28;20036;-66
2021/04/22 12:47:53;;;;;;;9.50;2.97;;;20.10;29.40;;;;;;5046310;28;20028;-66